Terminal Aerodrome Forecast
Issued by NWS

Home | Current Version | Previous Version | Text Only | Print | Product List | Glossary On
Versions: 1 2 3 4 5 6 7 8 9 10 11 12 13
823
FTUS45 KVEF 260520
TAFHND
TAF
KHND 260520Z 2606/2706 20008KT P6SM FEW120
     FM261700 VRB05KT P6SM FEW120
     FM262200 25011KT P6SM VCSH SCT100
     FM270300 22010KT P6SM SCT100=

USA.gov is the U.S. government's official web portal to all federal, state and local government web resources and services.